Linda Kosan — OXSX2 — position and weather

sailwx.info

Track history (hours):
 
Tides and Currents Weather Stations Pressure Air Temp Water Temp Dewpoint Dewpoint Depression Visibility Wind Speed Wind Dir Waves Ship Positions

Linda Kosan

Last reported at 2018-Apr-20 00:43 UTC. Time now 2018-Apr-21 11:51 UTC.
Position N 48°11' W 006°13'.

Length 100 m; draft 4.9 m.

Type: Tanker. MMSI: 219048000.

Date/timePositionNaut miles runAvg speedWind from/ knotsBaromVisibWave heightAir tempDewpointWater temp
2018-Apr-20 00:43N 48°11' W 006°13'5113.1
2018-Apr-19 20:48N 48°57' W 005°38'8911.2
2018-Apr-19 12:48N 49°43' W 003°40'413.3
2018-Apr-19 12:30N 49°45' W 003°34'1012.7
2018-Apr-19 11:43N 49°50' W 003°21'312.0
2018-Apr-19 11:28N 49°51' W 003°17'711.3
2018-Apr-19 10:49N 49°55' W 003°07'310.7
2018-Apr-19 10:30N 49°56' W 003°02'510.2
2018-Apr-19 10:01N 49°58' W 002°55'5 9.6
2018-Apr-19 09:30N 50°00' W 002°48'6 9.6
2018-Apr-19 08:56N 50°02' W 002°40'4 9.6
2018-Apr-19 08:30N 50°03' W 002°34'5 9.7
2018-Apr-19 07:59N 50°04' W 002°27'610.3
2018-Apr-19 07:22N 50°06' W 002°17'411.1
2018-Apr-19 07:00N 50°07' W 002°11'612.1
2018-Apr-19 06:30N 50°09' W 002°02'713.6
2018-Apr-19 05:59N 50°11' W 001°51'714.8
2018-Apr-19 05:31N 50°13' W 001°41'815.6
2018-Apr-19 05:00N 50°15' W 001°29'816.0
2018-Apr-19 04:29N 50°17' W 001°16'816.4
2018-Apr-19 04:00N 50°19' W 001°05'816.5
2018-Apr-19 03:30N 50°22' W 000°52'1015.5
2018-Apr-19 02:52N 50°24' W 000°37'515.1
2018-Apr-19 02:30N 50°26' W 000°29'714.4
2018-Apr-19 02:00N 50°28' W 000°18'713.7
2018-Apr-19 01:30N 50°30' W 000°08'612.7
2018-Apr-19 01:00N 50°32' E 000°02'612.1
2018-Apr-19 00:29N 50°33' E 000°11'511.4
2018-Apr-19 00:01N 50°35' E 000°20'611.2
2018-Apr-18 23:30N 50°36' E 000°28'511.0
2018-Apr-18 23:01N 50°38' E 000°36'611.3
2018-Apr-18 22:31N 50°41' E 000°44'612.0
2018-Apr-18 22:00N 50°45' E 000°51'813.0
2018-Apr-18 21:25N 50°50' E 001°01'1314.8
2018-Apr-18 20:30N 50°59' E 001°16'815.9
2018-Apr-18 20:00N 51°04' E 001°26'815.9
2018-Apr-18 19:30N 51°09' E 001°36'714.9
2018-Apr-18 19:00N 51°13' E 001°45'713.8
2018-Apr-18 18:30N 51°20' E 001°50'612.8
2018-Apr-18 18:00N 51°25' E 001°55'612.3
2018-Apr-18 17:30N 51°30' E 002°02'611.8
2018-Apr-18 17:00N 51°34' E 002°08'611.4
2018-Apr-18 16:30N 51°38' E 002°14'611.3
2018-Apr-18 15:59N 51°43' E 002°20'510.9
2018-Apr-18 15:29N 51°47' E 002°26'711.0
2018-Apr-18 14:49N 51°52' E 002°34'3411.9
2018-Apr-18 11:57N 52°03' E 003°27'912.6
2018-Apr-18 11:14N 52°08' E 003°40'0 0.5
2018-Apr-18 10:54N 52°07' E 003°40'0 0.0
2018-Apr-18 06:48N 52°08' E 003°40'0 0.0
2018-Apr-18 06:30N 52°08' E 003°40'0 0.0
2018-Apr-18 05:54N 52°08' E 003°40'0 0.0
2018-Apr-18 05:30N 52°08' E 003°40'0 0.0
2018-Apr-18 05:00N 52°08' E 003°40'0 0.0
2018-Apr-18 04:09N 52°08' E 003°40'0 0.0
2018-Apr-18 04:00N 52°08' E 003°40'0 0.0
2018-Apr-18 01:15N 52°08' E 003°40'0 0.2
2018-Apr-18 00:54N 52°08' E 003°40'0 0.2
2018-Apr-18 00:21N 52°07' E 003°40'0 0.0
2018-Apr-17 23:54N 52°07' E 003°40'0 0.0
2018-Apr-17 22:00N 52°07' E 003°40'0 0.0
2018-Apr-17 21:27N 52°07' E 003°40'0 0.0
2018-Apr-17 20:57N 52°07' E 003°40'0 0.1
2018-Apr-17 20:27N 52°07' E 003°40'0 0.0
2018-Apr-17 20:00N 52°07' E 003°40'0 0.0
2018-Apr-17 10:18N 52°07' E 003°40'0 0.0
2018-Apr-17 09:45N 52°07' E 003°40'0 0.0
2018-Apr-17 09:18N 52°07' E 003°40'0 0.0
2018-Apr-17 09:00N 52°07' E 003°40'0 0.0
2018-Apr-17 08:27N 52°07' E 003°40'0 0.2
2018-Apr-17 08:00N 52°08' E 003°40'0 0.1
2018-Apr-17 07:27N 52°08' E 003°40'0 0.0
2018-Apr-17 06:51N 52°08' E 003°40'0 0.0
2018-Apr-17 06:30N 52°08' E 003°40'0 0.0
2018-Apr-17 05:44N 52°08' E 003°40'0 0.0
2018-Apr-17 05:23N 52°08' E 003°40'0 0.0
2018-Apr-17 05:00N 52°08' E 003°40'0 0.0
2018-Apr-17 04:24N 52°08' E 003°40'0 0.0
2018-Apr-17 04:00N 52°08' E 003°40'0 0.0
2018-Apr-17 03:28N 52°08' E 003°40'0 0.0
2018-Apr-17 02:59N 52°08' E 003°40'0 0.0
2018-Apr-17 02:29N 52°08' E 003°40'0 0.0
2018-Apr-17 00:42N 52°08' E 003°40'0 0.1
2018-Apr-17 00:30N 52°08' E 003°40'0 0.7
2018-Apr-17 00:00N 52°07' E 003°40'5 9.5
2018-Apr-16 23:30N 52°04' E 003°46'510.9
2018-Apr-16 23:00N 52°02' E 003°54'612.7
2018-Apr-16 22:30N 51°59' E 004°03'510.4
2018-Apr-16 22:00N 51°57' E 004°11'0 0.1
2018-Apr-16 21:30N 51°57' E 004°11'0 0.0
2018-Apr-16 20:58N 51°57' E 004°11'0 0.0
2018-Apr-16 20:28N 51°57' E 004°11'0 0.0
2018-Apr-16 19:58N 51°57' E 004°11'0 0.0
2018-Apr-16 19:25N 51°57' E 004°11'0 0.0
2018-Apr-16 18:58N 51°57' E 004°11'0 0.0
2018-Apr-16 18:25N 51°57' E 004°11'0 0.0
2018-Apr-16 17:59N 51°57' E 004°11'0 0.0
2018-Apr-16 17:31N 51°57' E 004°11'2 3.1
2018-Apr-16 17:01N 51°55' E 004°12'0 0.0
2018-Apr-15 19:38N 51°55' E 004°12'0 0.0
2018-Apr-15 19:30N 51°55' E 004°12'0 0.8
2018-Apr-15 19:00N 51°56' E 004°12'3 6.6
2018-Apr-15 18:30N 51°58' E 004°08'510.3
2018-Apr-15 18:01N 51°60' E 004°00'611.0
2018-Apr-15 17:30N 51°60' E 003°51'4 8.8
2018-Apr-15 17:00N 51°59' E 003°44'5112.5
2018-Apr-15 12:57N 51°39' E 002°29'713.8
2018-Apr-15 12:28N 51°34' E 002°22'713.8
2018-Apr-15 11:59N 51°29' E 002°15'713.4
2018-Apr-15 11:30N 51°23' E 002°12'713.5
2018-Apr-15 11:00N 51°17' E 002°07'713.4
2018-Apr-15 10:31N 51°12' E 001°59'713.4
2018-Apr-15 10:01N 51°08' E 001°50'713.8
2018-Apr-15 09:30N 51°03' E 001°43'7511.3
2018-Apr-15 02:54N 50°21' E 000°06'1010.9
2018-Apr-15 01:59N 50°18' W 000°09'2510.6
2018-Apr-14 23:38N 50°12' W 000°47'111.1
2018-Apr-14 23:30N 50°11' W 000°49'611.5
2018-Apr-14 23:00N 50°10' W 000°57'612.2
2018-Apr-14 22:30N 50°08' W 001°07'713.1
2018-Apr-14 22:00N 50°06' W 001°16'713.8
2018-Apr-14 21:30N 50°04' W 001°27'714.4
2018-Apr-14 21:00N 50°02' W 001°37'715.0
2018-Apr-14 20:30N 49°60' W 001°49'1015.4
2018-Apr-14 19:51N 49°58' W 002°04'4014.5
2018-Apr-14 17:03N 49°46' W 003°04'113.6
2018-Apr-14 17:00N 49°46' W 003°05'713.4
2018-Apr-14 16:30N 49°42' W 003°14'13410.5
2018-Apr-14 03:48N 48°09' W 005°40'30112.0
2018-Apr-13 02:41N 43°28' W 003°08'312.6
2018-Apr-13 02:25N 43°25' W 003°06'3 6.9
2018-Apr-13 02:00N 43°22' W 003°06'0 0.0
2018-Apr-12 08:17N 43°22' W 003°06'1 2.8
2018-Apr-12 07:48N 43°23' W 003°05'3 8.7
2018-Apr-12 07:30N 43°25' W 003°07'31911.5
2018-Apr-11 03:38N 48°23' W 005°53'13111.1
2018-Apr-10 15:49N 49°49' W 003°23'412.2
2018-Apr-10 15:30N 49°51' W 003°18'1112.1
2018-Apr-10 14:38N 49°56' W 003°04'212.1
2018-Apr-10 14:30N 49°57' W 003°02'612.2
2018-Apr-10 14:00N 49°60' W 002°53'3412.8
2018-Apr-10 11:21N 50°10' W 002°02'914.0
2018-Apr-10 10:43N 50°12' W 001°49'314.1
2018-Apr-10 10:30N 50°13' W 001°45'914.3
2018-Apr-10 09:54N 50°15' W 001°32'614.3
2018-Apr-10 09:30N 50°17' W 001°23'4213.9
2018-Apr-10 06:30N 50°27' W 000°20'712.9
2018-Apr-10 06:00N 50°29' W 000°10'612.6
2018-Apr-10 05:29N 50°31' W 000°01'612.5
2018-Apr-10 05:00N 50°33' E 000°08'612.3
2018-Apr-10 04:30N 50°35' E 000°18'612.2
2018-Apr-10 04:00N 50°36' E 000°27'612.3
2018-Apr-10 03:30N 50°38' E 000°36'612.5
2018-Apr-10 03:00N 50°42' E 000°44'612.7
2018-Apr-10 02:30N 50°46' E 000°52'813.1
2018-Apr-10 01:53N 50°50' E 001°03'  
Track history (hours):
 
Tides and Currents Weather Stations Pressure Air Temp Water Temp Dewpoint Dewpoint Depression Visibility Wind Speed Wind Dir Waves Ship Positions

Linda Kosan

Last reported at 2018-Apr-20 00:43 UTC. Time now 2018-Apr-21 11:51 UTC.
Position N 48°11' W 006°13'.

Length 100 m; draft 4.9 m.

Type: Tanker. MMSI: 219048000.

Date/timePositionNaut miles runAvg speedWind from/ knotsBaromVisibWave heightAir tempDewpointWater temp
2018-Apr-20 00:43N 48°11' W 006°13'5113.1
2018-Apr-19 20:48N 48°57' W 005°38'8911.2
2018-Apr-19 12:48N 49°43' W 003°40'413.3
2018-Apr-19 12:30N 49°45' W 003°34'1012.7
2018-Apr-19 11:43N 49°50' W 003°21'312.0
2018-Apr-19 11:28N 49°51' W 003°17'711.3
2018-Apr-19 10:49N 49°55' W 003°07'310.7
2018-Apr-19 10:30N 49°56' W 003°02'510.2
2018-Apr-19 10:01N 49°58' W 002°55'5 9.6
2018-Apr-19 09:30N 50°00' W 002°48'6 9.6
2018-Apr-19 08:56N 50°02' W 002°40'4 9.6
2018-Apr-19 08:30N 50°03' W 002°34'5 9.7
2018-Apr-19 07:59N 50°04' W 002°27'610.3
2018-Apr-19 07:22N 50°06' W 002°17'411.1
2018-Apr-19 07:00N 50°07' W 002°11'612.1
2018-Apr-19 06:30N 50°09' W 002°02'713.6
2018-Apr-19 05:59N 50°11' W 001°51'714.8
2018-Apr-19 05:31N 50°13' W 001°41'815.6
2018-Apr-19 05:00N 50°15' W 001°29'816.0
2018-Apr-19 04:29N 50°17' W 001°16'816.4
2018-Apr-19 04:00N 50°19' W 001°05'816.5
2018-Apr-19 03:30N 50°22' W 000°52'1015.5
2018-Apr-19 02:52N 50°24' W 000°37'515.1
2018-Apr-19 02:30N 50°26' W 000°29'714.4
2018-Apr-19 02:00N 50°28' W 000°18'713.7
2018-Apr-19 01:30N 50°30' W 000°08'612.7
2018-Apr-19 01:00N 50°32' E 000°02'612.1
2018-Apr-19 00:29N 50°33' E 000°11'511.4
2018-Apr-19 00:01N 50°35' E 000°20'611.2
2018-Apr-18 23:30N 50°36' E 000°28'511.0
2018-Apr-18 23:01N 50°38' E 000°36'611.3
2018-Apr-18 22:31N 50°41' E 000°44'612.0
2018-Apr-18 22:00N 50°45' E 000°51'813.0
2018-Apr-18 21:25N 50°50' E 001°01'1314.8
2018-Apr-18 20:30N 50°59' E 001°16'815.9
2018-Apr-18 20:00N 51°04' E 001°26'815.9
2018-Apr-18 19:30N 51°09' E 001°36'714.9
2018-Apr-18 19:00N 51°13' E 001°45'713.8
2018-Apr-18 18:30N 51°20' E 001°50'612.8
2018-Apr-18 18:00N 51°25' E 001°55'612.3
2018-Apr-18 17:30N 51°30' E 002°02'611.8
2018-Apr-18 17:00N 51°34' E 002°08'611.4
2018-Apr-18 16:30N 51°38' E 002°14'611.3
2018-Apr-18 15:59N 51°43' E 002°20'510.9
2018-Apr-18 15:29N 51°47' E 002°26'711.0
2018-Apr-18 14:49N 51°52' E 002°34'3411.9
2018-Apr-18 11:57N 52°03' E 003°27'912.6
2018-Apr-18 11:14N 52°08' E 003°40'0 0.5
2018-Apr-18 10:54N 52°07' E 003°40'0 0.0
2018-Apr-18 06:48N 52°08' E 003°40'0 0.0
2018-Apr-18 06:30N 52°08' E 003°40'0 0.0
2018-Apr-18 05:54N 52°08' E 003°40'0 0.0
2018-Apr-18 05:30N 52°08' E 003°40'0 0.0
2018-Apr-18 05:00N 52°08' E 003°40'0 0.0
2018-Apr-18 04:09N 52°08' E 003°40'0 0.0
2018-Apr-18 04:00N 52°08' E 003°40'0 0.0
2018-Apr-18 01:15N 52°08' E 003°40'0 0.2
2018-Apr-18 00:54N 52°08' E 003°40'0 0.2
2018-Apr-18 00:21N 52°07' E 003°40'0 0.0
2018-Apr-17 23:54N 52°07' E 003°40'0 0.0
2018-Apr-17 22:00N 52°07' E 003°40'0 0.0
2018-Apr-17 21:27N 52°07' E 003°40'0 0.0
2018-Apr-17 20:57N 52°07' E 003°40'0 0.1
2018-Apr-17 20:27N 52°07' E 003°40'0 0.0
2018-Apr-17 20:00N 52°07' E 003°40'0 0.0
2018-Apr-17 10:18N 52°07' E 003°40'0 0.0
2018-Apr-17 09:45N 52°07' E 003°40'0 0.0
2018-Apr-17 09:18N 52°07' E 003°40'0 0.0
2018-Apr-17 09:00N 52°07' E 003°40'0 0.0
2018-Apr-17 08:27N 52°07' E 003°40'0 0.2
2018-Apr-17 08:00N 52°08' E 003°40'0 0.1
2018-Apr-17 07:27N 52°08' E 003°40'0 0.0
2018-Apr-17 06:51N 52°08' E 003°40'0 0.0
2018-Apr-17 06:30N 52°08' E 003°40'0 0.0
2018-Apr-17 05:44N 52°08' E 003°40'0 0.0
2018-Apr-17 05:23N 52°08' E 003°40'0 0.0
2018-Apr-17 05:00N 52°08' E 003°40'0 0.0
2018-Apr-17 04:24N 52°08' E 003°40'0 0.0
2018-Apr-17 04:00N 52°08' E 003°40'0 0.0
2018-Apr-17 03:28N 52°08' E 003°40'0 0.0
2018-Apr-17 02:59N 52°08' E 003°40'0 0.0
2018-Apr-17 02:29N 52°08' E 003°40'0 0.0
2018-Apr-17 00:42N 52°08' E 003°40'0 0.1
2018-Apr-17 00:30N 52°08' E 003°40'0 0.7
2018-Apr-17 00:00N 52°07' E 003°40'5 9.5
2018-Apr-16 23:30N 52°04' E 003°46'510.9
2018-Apr-16 23:00N 52°02' E 003°54'612.7
2018-Apr-16 22:30N 51°59' E 004°03'510.4
2018-Apr-16 22:00N 51°57' E 004°11'0 0.1
2018-Apr-16 21:30N 51°57' E 004°11'0 0.0
2018-Apr-16 20:58N 51°57' E 004°11'0 0.0
2018-Apr-16 20:28N 51°57' E 004°11'0 0.0
2018-Apr-16 19:58N 51°57' E 004°11'0 0.0
2018-Apr-16 19:25N 51°57' E 004°11'0 0.0
2018-Apr-16 18:58N 51°57' E 004°11'0 0.0
2018-Apr-16 18:25N 51°57' E 004°11'0 0.0
2018-Apr-16 17:59N 51°57' E 004°11'0 0.0
2018-Apr-16 17:31N 51°57' E 004°11'2 3.1
2018-Apr-16 17:01N 51°55' E 004°12'0 0.0
2018-Apr-15 19:38N 51°55' E 004°12'0 0.0
2018-Apr-15 19:30N 51°55' E 004°12'0 0.8
2018-Apr-15 19:00N 51°56' E 004°12'3 6.6
2018-Apr-15 18:30N 51°58' E 004°08'510.3
2018-Apr-15 18:01N 51°60' E 004°00'611.0
2018-Apr-15 17:30N 51°60' E 003°51'4 8.8
2018-Apr-15 17:00N 51°59' E 003°44'5112.5
2018-Apr-15 12:57N 51°39' E 002°29'713.8
2018-Apr-15 12:28N 51°34' E 002°22'713.8
2018-Apr-15 11:59N 51°29' E 002°15'713.4
2018-Apr-15 11:30N 51°23' E 002°12'713.5
2018-Apr-15 11:00N 51°17' E 002°07'713.4
2018-Apr-15 10:31N 51°12' E 001°59'713.4
2018-Apr-15 10:01N 51°08' E 001°50'713.8
2018-Apr-15 09:30N 51°03' E 001°43'7511.3
2018-Apr-15 02:54N 50°21' E 000°06'1010.9
2018-Apr-15 01:59N 50°18' W 000°09'2510.6
2018-Apr-14 23:38N 50°12' W 000°47'111.1
2018-Apr-14 23:30N 50°11' W 000°49'611.5
2018-Apr-14 23:00N 50°10' W 000°57'612.2
2018-Apr-14 22:30N 50°08' W 001°07'713.1
2018-Apr-14 22:00N 50°06' W 001°16'713.8
2018-Apr-14 21:30N 50°04' W 001°27'714.4
2018-Apr-14 21:00N 50°02' W 001°37'715.0
2018-Apr-14 20:30N 49°60' W 001°49'1015.4
2018-Apr-14 19:51N 49°58' W 002°04'4014.5
2018-Apr-14 17:03N 49°46' W 003°04'113.6
2018-Apr-14 17:00N 49°46' W 003°05'713.4
2018-Apr-14 16:30N 49°42' W 003°14'13410.5
2018-Apr-14 03:48N 48°09' W 005°40'30112.0
2018-Apr-13 02:41N 43°28' W 003°08'312.6
2018-Apr-13 02:25N 43°25' W 003°06'3 6.9
2018-Apr-13 02:00N 43°22' W 003°06'0 0.0
2018-Apr-12 08:17N 43°22' W 003°06'1 2.8
2018-Apr-12 07:48N 43°23' W 003°05'3 8.7
2018-Apr-12 07:30N 43°25' W 003°07'31911.5
2018-Apr-11 03:38N 48°23' W 005°53'13111.1
2018-Apr-10 15:49N 49°49' W 003°23'412.2
2018-Apr-10 15:30N 49°51' W 003°18'1112.1
2018-Apr-10 14:38N 49°56' W 003°04'212.1
2018-Apr-10 14:30N 49°57' W 003°02'612.2
2018-Apr-10 14:00N 49°60' W 002°53'3412.8
2018-Apr-10 11:21N 50°10' W 002°02'914.0
2018-Apr-10 10:43N 50°12' W 001°49'314.1
2018-Apr-10 10:30N 50°13' W 001°45'914.3
2018-Apr-10 09:54N 50°15' W 001°32'614.3
2018-Apr-10 09:30N 50°17' W 001°23'4213.9
2018-Apr-10 06:30N 50°27' W 000°20'712.9
2018-Apr-10 06:00N 50°29' W 000°10'612.6
2018-Apr-10 05:29N 50°31' W 000°01'612.5
2018-Apr-10 05:00N 50°33' E 000°08'612.3
2018-Apr-10 04:30N 50°35' E 000°18'612.2
2018-Apr-10 04:00N 50°36' E 000°27'612.3
2018-Apr-10 03:30N 50°38' E 000°36'612.5
2018-Apr-10 03:00N 50°42' E 000°44'612.7
2018-Apr-10 02:30N 50°46' E 000°52'813.1
2018-Apr-10 01:53N 50°50' E 001°03'  

Dump ship's entire track history